Time;durP1;ratioP1;P1;durP2;ratioP2;P2;SDS_P1;SDS_P2;PMS_P1;PMS_P2;Temp;Humidity;BMP_temperature;BMP_pressure;BME280_temperature;BME280_humidity;BME280_pressure;Samples;Min_cycle;Max_cycle;Signal;HPM_P1;HPM_P2
2021/10/11 00:01:44;;;;;;;;;;;4.30;99.90;;;;;;4980625;28;19996;-91
2021/10/11 00:04:10;;;;;;;;;;;4.30;99.90;;;;;;4981160;28;19905;-90
2021/10/11 00:06:35;;;;;;;;;;;4.30;99.90;;;;;;4980170;28;19909;-91
2021/10/11 00:09:01;;;;;;;;;;;4.20;99.90;;;;;;4980157;28;19906;-91
2021/10/11 00:11:27;;;;;;;;;;;4.30;99.90;;;;;;4980424;28;19913;-90
2021/10/11 00:13:52;;;;;;;;;;;4.30;99.90;;;;;;4979947;28;19944;-91
2021/10/11 00:16:18;;;;;;;;;;;4.30;99.90;;;;;;4979695;28;19909;-90
2021/10/11 00:18:44;;;;;;;;;;;4.30;99.90;;;;;;4980353;28;19937;-90
2021/10/11 00:21:13;;;;;;;;;;;4.20;99.90;;;;;;4980078;28;19912;-90
2021/10/11 00:23:39;;;;;;;;;;;4.20;99.90;;;;;;4980256;28;20000;-91
2021/10/11 00:26:05;;;;;;;;;;;4.10;99.90;;;;;;4979962;28;20375;-91
2021/10/11 00:28:30;;;;;;;;;;;4.10;99.90;;;;;;4979941;28;19992;-90
2021/10/11 00:30:56;;;;;;;;;;;4.00;99.90;;;;;;4979717;28;19909;-90
2021/10/11 00:33:21;;;;;;;;;;;4.10;99.90;;;;;;4980250;28;19912;-90
2021/10/11 00:35:47;;;;;;;;;;;4.10;99.90;;;;;;4979741;28;19905;-90
2021/10/11 00:38:13;;;;;;;;;;;4.10;99.90;;;;;;4979988;28;19905;-91
2021/10/11 00:40:38;;;;;;;;;;;4.10;99.90;;;;;;4979971;28;19959;-90
2021/10/11 00:43:04;;;;;;;;;;;4.10;99.90;;;;;;4979942;28;19912;-90
2021/10/11 00:45:29;;;;;;;;;;;4.20;99.90;;;;;;4979829;28;20367;-90
2021/10/11 00:47:55;;;;;;;;;;;4.30;99.90;;;;;;4979707;28;19913;-90
2021/10/11 00:50:21;;;;;;;;;;;4.20;99.90;;;;;;4979706;28;20018;-90
2021/10/11 00:52:46;;;;;;;;;;;4.10;99.90;;;;;;4979929;28;19952;-90
2021/10/11 00:55:12;;;;;;;;;;;4.00;99.90;;;;;;4979591;28;20314;-90
2021/10/11 00:57:37;;;;;;;;;;;4.00;99.90;;;;;;4981033;28;19932;-91
2021/10/11 01:00:04;;;;;;;;;;;3.90;99.90;;;;;;4983189;28;20008;-90
2021/10/11 01:02:29;;;;;;;;;;;3.80;99.90;;;;;;4983462;28;19906;-91
2021/10/11 01:04:55;;;;;;;;;;;4.00;99.90;;;;;;4982909;28;19992;-90
2021/10/11 01:07:21;;;;;;;;;;;4.00;99.90;;;;;;4982926;28;19988;-91
2021/10/11 01:09:47;;;;;;;;;;;4.10;99.90;;;;;;4983223;28;19913;-90
2021/10/11 01:12:12;;;;;;;;;;;4.00;99.90;;;;;;4982780;28;19905;-90
2021/10/11 01:14:38;;;;;;;;;;;3.70;99.90;;;;;;4982686;28;19912;-90
2021/10/11 01:17:03;;;;;;;;;;;3.50;99.90;;;;;;4982663;28;19949;-90
2021/10/11 01:19:29;;;;;;;;;;;3.30;99.90;;;;;;4983214;28;19916;-90
2021/10/11 01:21:55;;;;;;;;;;;3.20;99.90;;;;;;4982969;28;19916;-91
2021/10/11 01:24:20;;;;;;;;;;;3.40;99.90;;;;;;4982703;28;19905;-90
2021/10/11 01:26:46;;;;;;;;;;;3.40;99.90;;;;;;4982348;28;20006;-91
2021/10/11 01:29:14;;;;;;;;;;;3.20;99.90;;;;;;4983017;28;19913;-91
2021/10/11 01:31:39;;;;;;;;;;;3.30;99.90;;;;;;4982682;28;19905;-91
2021/10/11 01:34:06;;;;;;;;;;;3.30;99.90;;;;;;4983237;28;20000;-90
2021/10/11 01:36:31;;;;;;;;;;;3.20;99.90;;;;;;4982455;28;19948;-90
2021/10/11 01:38:58;;;;;;;;;;;3.30;99.90;;;;;;4982525;28;20429;-90
2021/10/11 01:41:24;;;;;;;;;;;3.50;99.90;;;;;;4982771;28;20001;-90
2021/10/11 01:43:49;;;;;;;;;;;3.40;99.90;;;;;;4982578;28;19945;-90
2021/10/11 01:46:15;;;;;;;;;;;3.40;99.90;;;;;;4982489;28;19910;-90
2021/10/11 01:48:41;;;;;;;;;;;3.50;99.90;;;;;;4982527;28;19913;-91
2021/10/11 01:51:07;;;;;;;;;;;3.40;99.90;;;;;;4982543;28;19955;-90
2021/10/11 01:53:32;;;;;;;;;;;3.40;99.90;;;;;;4982620;28;19906;-90
2021/10/11 01:55:58;;;;;;;;;;;3.50;99.90;;;;;;4982634;28;19973;-91
2021/10/11 01:58:24;;;;;;;;;;;3.60;99.90;;;;;;4982355;28;19960;-90
2021/10/11 02:00:49;;;;;;;;;;;3.70;99.90;;;;;;4982774;28;20259;-90
2021/10/11 02:03:15;;;;;;;;;;;3.80;99.90;;;;;;4983160;28;19913;-90
2021/10/11 02:05:41;;;;;;;;;;;3.90;99.90;;;;;;4989382;28;19906;-89
2021/10/11 02:08:06;;;;;;;;;;;3.80;99.90;;;;;;4999923;28;19918;-91
2021/10/11 02:10:32;;;;;;;;;;;3.90;99.90;;;;;;4981794;28;19913;-90
2021/10/11 02:12:58;;;;;;;;;;;4.00;99.90;;;;;;4982336;28;19905;-90
2021/10/11 02:15:24;;;;;;;;;;;4.00;99.90;;;;;;4982135;28;19912;-91
2021/10/11 02:17:50;;;;;;;;;;;3.90;99.90;;;;;;4982096;28;19918;-91
2021/10/11 02:20:16;;;;;;;;;;;3.80;99.90;;;;;;4982221;28;19909;-90
2021/10/11 02:22:41;;;;;;;;;;;3.60;99.90;;;;;;4999827;28;19898;-88
2021/10/11 02:25:08;;;;;;;;;;;3.60;99.90;;;;;;5004631;28;19910;-90
2021/10/11 02:27:33;;;;;;;;;;;3.60;99.90;;;;;;4986013;28;19906;-90
2021/10/11 02:30:04;;;;;;;;;;;3.50;99.90;;;;;;4981937;28;19905;-90
2021/10/11 02:32:29;;;;;;;;;;;3.40;99.90;;;;;;4982177;28;19906;-90
2021/10/11 02:35:03;;;;;;;;;;;3.50;99.90;;;;;;4981649;28;19975;-90
2021/10/11 02:37:32;;;;;;;;;;;3.30;99.90;;;;;;4981404;28;20022;-90
2021/10/11 02:40:00;;;;;;;;;;;3.30;99.90;;;;;;4980747;28;19928;-90
2021/10/11 02:42:34;;;;;;;;;;;3.20;99.90;;;;;;4981820;28;19906;-90
2021/10/11 02:45:06;;;;;;;;;;;3.20;99.90;;;;;;4982072;28;19952;-90
2021/10/11 02:47:31;;;;;;;;;;;3.10;99.90;;;;;;4981800;28;19951;-90
2021/10/11 02:49:57;;;;;;;;;;;3.00;99.90;;;;;;4981212;28;20279;-90
2021/10/11 02:52:31;;;;;;;;;;;2.90;99.90;;;;;;4981840;28;19906;-90
2021/10/11 02:55:01;;;;;;;;;;;2.90;99.90;;;;;;4981123;28;19913;-90
2021/10/11 02:57:29;;;;;;;;;;;2.90;99.90;;;;;;4981216;28;19976;-90
2021/10/11 03:00:10;;;;;;;;;;;3.00;99.90;;;;;;4981461;28;19909;-90
2021/10/11 03:02:39;;;;;;;;;;;3.30;99.90;;;;;;4981667;28;19959;-91
2021/10/11 03:05:05;;;;;;;;;;;3.30;99.90;;;;;;4981314;28;19911;-90
2021/10/11 03:07:38;;;;;;;;;;;3.30;99.90;;;;;;4981214;28;19906;-90
2021/10/11 03:10:10;;;;;;;;;;;3.20;99.90;;;;;;4982200;28;19909;-91
2021/10/11 03:12:36;;;;;;;;;;;3.40;99.90;;;;;;4981993;28;19905;-90
2021/10/11 03:15:05;;;;;;;;;;;3.40;99.90;;;;;;4980811;28;20008;-90
2021/10/11 03:17:30;;;;;;;;;;;3.30;99.90;;;;;;4980722;28;19919;-90
2021/10/11 03:19:56;;;;;;;;;;;3.10;99.90;;;;;;4981004;28;20011;-90
2021/10/11 03:22:21;;;;;;;;;;;3.10;99.90;;;;;;4980867;28;19906;-90
2021/10/11 03:24:47;;;;;;;;;;;3.20;99.90;;;;;;4980818;28;19928;-91
2021/10/11 03:27:12;;;;;;;;;;;3.40;99.90;;;;;;4980892;28;19905;-90
2021/10/11 03:29:38;;;;;;;;;;;3.40;99.90;;;;;;4981007;28;20259;-90
2021/10/11 03:32:04;;;;;;;;;;;3.60;99.90;;;;;;4981015;28;19913;-90
2021/10/11 03:34:29;;;;;;;;;;;3.80;99.90;;;;;;4981026;28;20007;-90
2021/10/11 03:36:55;;;;;;;;;;;3.80;99.90;;;;;;4980506;28;19914;-90
2021/10/11 03:39:20;;;;;;;;;;;3.80;99.90;;;;;;4980498;28;19928;-91
2021/10/11 03:41:46;;;;;;;;;;;3.70;99.90;;;;;;4980817;28;19910;-90
2021/10/11 03:44:12;;;;;;;;;;;3.70;99.90;;;;;;4981229;28;20430;-91
2021/10/11 03:46:37;;;;;;;;;;;3.80;99.90;;;;;;4980874;28;19929;-90
2021/10/11 03:49:03;;;;;;;;;;;3.60;99.90;;;;;;4980966;28;19928;-91
2021/10/11 03:51:29;;;;;;;;;;;3.60;99.90;;;;;;4981130;28;19905;-90
2021/10/11 03:53:55;;;;;;;;;;;3.50;99.90;;;;;;4980990;28;19909;-90
2021/10/11 03:56:39;;;;;;;;;;;3.50;99.90;;;;;;4981113;28;19920;-91
2021/10/11 03:59:05;;;;;;;;;;;3.50;99.90;;;;;;4980810;28;19906;-91
2021/10/11 04:01:30;;;;;;;;;;;3.60;99.90;;;;;;4980333;28;19905;-91
2021/10/11 04:03:56;;;;;;;;;;;3.70;99.90;;;;;;4980760;28;19917;-91
2021/10/11 04:06:22;;;;;;;;;;;3.70;99.90;;;;;;4980030;28;19972;-91
2021/10/11 04:08:49;;;;;;;;;;;3.80;99.90;;;;;;4980699;28;19913;-91
2021/10/11 04:13:41;;;;;;;;;;;3.40;99.90;;;;;;4996652;28;19906;-91
2021/10/11 04:16:06;;;;;;;;;;;3.20;99.90;;;;;;4980368;28;20408;-89
2021/10/11 04:18:32;;;;;;;;;;;3.20;99.90;;;;;;4980126;28;19953;-91
2021/10/11 04:20:58;;;;;;;;;;;3.30;99.90;;;;;;4980517;28;20643;-91
2021/10/11 04:23:24;;;;;;;;;;;3.40;99.90;;;;;;4980381;28;19913;-91
2021/10/11 04:25:56;;;;;;;;;;;3.50;99.90;;;;;;4980174;28;19913;-91
2021/10/11 04:28:22;;;;;;;;;;;3.70;99.90;;;;;;4980241;28;19956;-90
2021/10/11 04:30:48;;;;;;;;;;;3.70;99.90;;;;;;4980779;28;19909;-91
2021/10/11 04:33:14;;;;;;;;;;;3.60;99.90;;;;;;4983412;28;19905;-91
2021/10/11 04:35:39;;;;;;;;;;;3.60;99.90;;;;;;4984332;28;19905;-91
2021/10/11 04:38:05;;;;;;;;;;;3.60;99.90;;;;;;4985434;28;19909;-91
2021/10/11 04:40:31;;;;;;;;;;;3.80;99.90;;;;;;4984991;28;19905;-91
2021/10/11 04:42:57;;;;;;;;;;;3.80;99.90;;;;;;4983995;28;19913;-91
2021/10/11 04:45:29;;;;;;;;;;;3.50;99.90;;;;;;4984682;28;19913;-91
2021/10/11 04:48:06;;;;;;;;;;;3.50;99.90;;;;;;4983783;28;19977;-91
2021/10/11 04:50:33;;;;;;;;;;;3.60;99.90;;;;;;4983735;28;20287;-91
2021/10/11 04:52:59;;;;;;;;;;;3.50;99.90;;;;;;4983778;28;19912;-91
2021/10/11 04:55:25;;;;;;;;;;;3.60;99.90;;;;;;4983909;28;19912;-91
2021/10/11 04:57:51;;;;;;;;;;;3.50;99.90;;;;;;4984698;28;19913;-90
2021/10/11 05:00:16;;;;;;;;;;;3.50;99.90;;;;;;4984996;28;19935;-90
2021/10/11 05:02:48;;;;;;;;;;;3.60;99.90;;;;;;4986836;28;20004;-91
2021/10/11 05:05:14;;;;;;;;;;;3.60;99.90;;;;;;4984668;28;19905;-91
2021/10/11 05:07:40;;;;;;;;;;;3.50;99.90;;;;;;4984384;28;19977;-91
2021/10/11 05:10:06;;;;;;;;;;;3.50;99.90;;;;;;4985291;28;20290;-91
2021/10/11 05:12:32;;;;;;;;;;;3.20;99.90;;;;;;5005766;28;20065;-89
2021/10/11 05:14:58;;;;;;;;;;;3.10;99.90;;;;;;5005902;28;19947;-90
2021/10/11 05:17:24;;;;;;;;;;;3.20;99.90;;;;;;4983596;28;19999;-91
2021/10/11 05:19:49;;;;;;;;;;;3.20;99.90;;;;;;4984021;28;19964;-90
2021/10/11 05:22:15;;;;;;;;;;;3.20;99.90;;;;;;4986726;28;19905;-91
2021/10/11 05:24:41;;;;;;;;;;;3.30;99.90;;;;;;4989240;28;19906;-90
2021/10/11 05:27:07;;;;;;;;;;;3.40;99.90;;;;;;4976954;28;19912;-91
2021/10/11 05:29:32;;;;;;;;;;;3.20;99.90;;;;;;4966993;28;20256;-91
2021/10/11 05:31:58;;;;;;;;;;;3.10;99.90;;;;;;4966485;28;20000;-90
2021/10/11 05:34:24;;;;;;;;;;;3.00;99.90;;;;;;4984463;28;19905;-91
2021/10/11 05:37:09;;;;;;;;;;;3.00;99.90;;;;;;4982788;28;20442;-91
2021/10/11 05:39:35;;;;;;;;;;;3.00;99.90;;;;;;4982510;28;19912;-91
2021/10/11 05:42:06;;;;;;;;;;;2.90;99.90;;;;;;4969574;28;19905;-91
2021/10/11 05:44:40;;;;;;;;;;;2.80;99.90;;;;;;4963866;28;19906;-91
2021/10/11 05:47:06;;;;;;;;;;;2.80;99.90;;;;;;4963793;28;20001;-90
2021/10/11 05:49:32;;;;;;;;;;;2.60;99.90;;;;;;4964621;28;19959;-91
2021/10/11 05:52:06;;;;;;;;;;;2.60;99.90;;;;;;4964559;28;20307;-91
2021/10/11 05:54:32;;;;;;;;;;;2.60;99.90;;;;;;4965110;28;20001;-91
2021/10/11 05:56:58;;;;;;;;;;;2.60;99.90;;;;;;4966457;28;19956;-90
2021/10/11 05:59:23;;;;;;;;;;;2.60;99.90;;;;;;4967049;28;19921;-90
2021/10/11 06:01:56;;;;;;;;;;;2.60;99.90;;;;;;4991292;28;19937;-90
2021/10/11 06:04:31;;;;;;;;;;;2.70;99.90;;;;;;4978346;28;19905;-91
2021/10/11 06:07:02;;;;;;;;;;;2.70;99.90;;;;;;4980668;28;19909;-90
2021/10/11 06:09:41;;;;;;;;;;;2.70;99.90;;;;;;4991852;28;19905;-90
2021/10/11 06:12:10;;;;;;;;;;;2.70;99.90;;;;;;4974624;28;20390;-91
2021/10/11 06:14:52;;;;;;;;;;;2.70;99.90;;;;;;4967234;28;19914;-90
2021/10/11 06:17:31;;;;;;;;;;;3.00;99.90;;;;;;4986389;28;19917;-91
2021/10/11 06:26:52;;;;;;;;;;;;;;;;;;;;;
2021/10/11 06:29:09;;;;;;;;;;;3.50;99.90;;;;;;4997601;23;19922;-75
2021/10/11 06:31:35;;;;;;;;;;;3.70;99.90;;;;;;4993650;28;20584;-75
2021/10/11 06:34:01;;;;;;;;;;;3.60;99.90;;;;;;4976193;28;20321;-74
2021/10/11 06:36:28;;;;;;;;;;;3.60;99.90;;;;;;4966504;28;19910;-74
2021/10/11 06:38:54;;;;;;;;;;;3.70;99.90;;;;;;4974261;28;19910;-74
2021/10/11 06:41:20;;;;;;;;;;;3.70;99.90;;;;;;4990993;28;19906;-75
2021/10/11 06:43:45;;;;;;;;;;;3.70;99.90;;;;;;4957560;28;20271;-75
2021/10/11 06:46:11;;;;;;;;;;;3.70;99.90;;;;;;4974002;28;19913;-74
2021/10/11 06:48:36;;;;;;;;;;;3.70;99.90;;;;;;4973717;28;19906;-74
2021/10/11 06:51:04;;;;;;;;;;;3.90;99.90;;;;;;4973840;28;19906;-75
2021/10/11 06:53:29;;;;;;;;;;;4.00;99.90;;;;;;4972585;28;19906;-75
2021/10/11 06:55:55;;;;;;;;;;;4.20;99.90;;;;;;4971740;28;19906;-75
2021/10/11 06:58:20;;;;;;;;;;;4.30;99.90;;;;;;4973632;28;19906;-75
2021/10/11 07:00:46;;;;;;;;;;;4.50;99.90;;;;;;4974103;28;19910;-74
2021/10/11 07:03:12;;;;;;;;;;;4.60;99.90;;;;;;4965203;28;19906;-75
2021/10/11 07:05:37;;;;;;;;;;;4.60;99.90;;;;;;4954822;28;19926;-75
2021/10/11 07:08:09;;;;;;;;;;;4.60;99.90;;;;;;4970540;28;20013;-75
2021/10/11 07:10:36;;;;;;;;;;;4.60;99.90;;;;;;4940477;28;20016;-75
2021/10/11 07:13:02;;;;;;;;;;;4.60;99.90;;;;;;4973421;28;19988;-75
2021/10/11 07:15:30;;;;;;;;;;;4.90;99.90;;;;;;4956783;28;19925;-75
2021/10/11 07:17:56;;;;;;;;;;;5.00;99.90;;;;;;4954639;28;20253;-75
2021/10/11 07:20:22;;;;;;;;;;;5.00;99.90;;;;;;4955259;28;19906;-75
2021/10/11 07:22:48;;;;;;;;;;;5.00;99.90;;;;;;4974120;28;19957;-75
2021/10/11 07:25:14;;;;;;;;;;;4.90;99.90;;;;;;4954188;28;20005;-75
2021/10/11 07:27:39;;;;;;;;;;;5.00;99.90;;;;;;4972390;28;19969;-74
2021/10/11 07:30:05;;;;;;;;;;;5.00;99.90;;;;;;4973257;28;20176;-75
2021/10/11 07:32:31;;;;;;;;;;;5.10;99.90;;;;;;4973316;28;19910;-74
2021/10/11 07:34:56;;;;;;;;;;;5.20;99.90;;;;;;4954742;28;19906;-75
2021/10/11 07:37:22;;;;;;;;;;;5.20;99.90;;;;;;4938378;28;19964;-75
2021/10/11 07:39:48;;;;;;;;;;;5.20;99.90;;;;;;4971501;28;19906;-75
2021/10/11 07:42:14;;;;;;;;;;;5.20;99.90;;;;;;4939114;28;19914;-75
2021/10/11 07:44:39;;;;;;;;;;;5.40;99.90;;;;;;4952807;28;20096;-75
2021/10/11 07:47:05;;;;;;;;;;;5.50;99.90;;;;;;4971369;28;19906;-75
2021/10/11 07:49:31;;;;;;;;;;;5.70;99.90;;;;;;4958618;28;19906;-74
2021/10/11 07:51:56;;;;;;;;;;;5.60;99.90;;;;;;4954637;28;20042;-74
2021/10/11 07:54:22;;;;;;;;;;;5.60;99.90;;;;;;4954619;28;19913;-75
2021/10/11 07:56:48;;;;;;;;;;;5.60;99.90;;;;;;4972152;28;19914;-74
2021/10/11 07:59:14;;;;;;;;;;;5.80;99.90;;;;;;4938598;28;20385;-74
2021/10/11 08:01:39;;;;;;;;;;;5.90;99.90;;;;;;4955130;28;19906;-75
2021/10/11 08:04:05;;;;;;;;;;;6.00;99.90;;;;;;4972106;28;19941;-75
2021/10/11 08:06:32;;;;;;;;;;;6.10;99.90;;;;;;4954402;28;19941;-74
2021/10/11 08:08:58;;;;;;;;;;;6.20;99.90;;;;;;4975571;28;19914;-74
2021/10/11 08:11:23;;;;;;;;;;;6.30;99.90;;;;;;4976248;28;19906;-74
2021/10/11 08:13:49;;;;;;;;;;;6.20;99.90;;;;;;4958090;28;19910;-74
2021/10/11 08:16:15;;;;;;;;;;;6.30;99.90;;;;;;4975700;28;20612;-74
2021/10/11 08:18:40;;;;;;;;;;;6.50;99.90;;;;;;4975711;28;19933;-74
2021/10/11 08:21:06;;;;;;;;;;;6.50;99.90;;;;;;4975518;28;19953;-74
2021/10/11 08:23:35;;;;;;;;;;;6.60;99.90;;;;;;4975721;28;19906;-73
2021/10/11 08:26:02;;;;;;;;;;;6.70;99.90;;;;;;4975163;28;20370;-74
2021/10/11 08:28:28;;;;;;;;;;;6.90;99.90;;;;;;4958643;28;19914;-75
2021/10/11 08:30:54;;;;;;;;;;;7.00;99.90;;;;;;4957826;28;20382;-74
2021/10/11 08:33:20;;;;;;;;;;;7.20;99.90;;;;;;4958441;28;19913;-75
2021/10/11 08:35:45;;;;;;;;;;;7.40;99.90;;;;;;4957685;28;19960;-74
2021/10/11 08:38:11;;;;;;;;;;;7.50;99.90;;;;;;4953627;28;20000;-75
2021/10/11 08:40:37;;;;;;;;;;;7.60;99.90;;;;;;4957687;28;20396;-74
2021/10/11 08:43:02;;;;;;;;;;;7.90;99.90;;;;;;4942297;28;20052;-75
2021/10/11 08:45:28;;;;;;;;;;;8.00;99.90;;;;;;4974784;28;19914;-75
2021/10/11 08:47:54;;;;;;;;;;;8.20;99.90;;;;;;4942048;28;19995;-74
2021/10/11 08:50:19;;;;;;;;;;;8.30;99.90;;;;;;4975068;28;19910;-75
2021/10/11 08:52:47;;;;;;;;;;;8.40;99.90;;;;;;4975241;28;19913;-74
2021/10/11 08:55:12;;;;;;;;;;;8.60;99.90;;;;;;4974863;28;19992;-74
2021/10/11 08:57:38;;;;;;;;;;;8.70;99.90;;;;;;4975145;28;20042;-75
2021/10/11 09:00:08;;;;;;;;;;;8.90;99.90;;;;;;4941729;28;19942;-74
2021/10/11 09:02:34;;;;;;;;;;;9.00;99.90;;;;;;4975491;28;19961;-75
2021/10/11 09:05:00;;;;;;;;;;;9.20;99.90;;;;;;4973075;28;19906;-75
2021/10/11 09:07:27;;;;;;;;;;;9.40;99.90;;;;;;4957746;28;19916;-75
2021/10/11 09:09:53;;;;;;;;;;;9.80;99.90;;;;;;4957522;28;19913;-75
2021/10/11 09:12:20;;;;;;;;;;;10.20;98.30;;;;;;4975188;28;20008;-74
2021/10/11 09:14:47;;;;;;;;;;;10.60;96.10;;;;;;4974392;28;19949;-74
2021/10/11 09:17:24;;;;;;;;;;;11.10;93.70;;;;;;4957790;28;20370;-74
2021/10/11 09:19:57;;;;;;;;;;;11.70;91.10;;;;;;4937629;28;19909;-75
2021/10/11 09:22:36;;;;;;;;;;;11.70;85.80;;;;;;4943307;28;19906;-75
2021/10/11 09:25:03;;;;;;;;;;;11.90;84.80;;;;;;4959173;28;19906;-75
2021/10/11 09:27:29;;;;;;;;;;;12.10;82.60;;;;;;4941430;28;19952;-74
2021/10/11 09:29:54;;;;;;;;;;;12.40;80.60;;;;;;4957080;28;19961;-74
2021/10/11 09:32:28;;;;;;;;;;;12.90;77.50;;;;;;4974589;28;19906;-75
2021/10/11 09:34:53;;;;;;;;;;;13.50;75.00;;;;;;4974648;28;19942;-74
2021/10/11 09:37:19;;;;;;;;;;;13.30;75.40;;;;;;4974148;28;19949;-75
2021/10/11 09:39:45;;;;;;;;;;;13.70;75.40;;;;;;4974672;28;19997;-74
2021/10/11 09:42:16;;;;;;;;;;;14.00;74.40;;;;;;4974194;28;20429;-75
2021/10/11 09:44:55;;;;;;;;;;;14.50;70.40;;;;;;4941093;28;19906;-75
2021/10/11 09:47:29;;;;;;;;;;;14.80;66.90;;;;;;4972329;28;19929;-74
2021/10/11 09:49:55;;;;;;;;;;;14.60;66.80;;;;;;4941114;28;19910;-74
2021/10/11 09:52:20;;;;;;;;;;;14.50;65.00;;;;;;4973374;28;20367;-74
2021/10/11 09:54:47;;;;;;;;;;;14.80;66.10;;;;;;4974225;28;19957;-74
2021/10/11 09:57:13;;;;;;;;;;;15.20;63.70;;;;;;4956602;28;19914;-74
2021/10/11 09:59:39;;;;;;;;;;;15.80;64.30;;;;;;4974256;28;19925;-74
2021/10/11 10:02:05;;;;;;;;;;;15.70;62.70;;;;;;4956258;28;19906;-75
2021/10/11 10:04:33;;;;;;;;;;;15.80;62.90;;;;;;4974076;28;19906;-75
2021/10/11 10:07:03;;;;;;;;;;;16.20;61.60;;;;;;4974180;28;19906;-73
2021/10/11 10:09:28;;;;;;;;;;;16.10;60.80;;;;;;4956962;28;19906;-74
2021/10/11 10:11:55;;;;;;;;;;;15.70;60.50;;;;;;4956426;28;19917;-74
2021/10/11 10:14:22;;;;;;;;;;;15.70;60.00;;;;;;4956726;28;19980;-74
2021/10/11 10:16:53;;;;;;;;;;;16.10;59.50;;;;;;4955986;28;19945;-74
2021/10/11 10:19:20;;;;;;;;;;;16.80;58.50;;;;;;4973616;28;19932;-74
2021/10/11 10:21:46;;;;;;;;;;;16.70;56.80;;;;;;4956160;28;19945;-74
2021/10/11 10:24:22;;;;;;;;;;;16.70;56.70;;;;;;4973162;28;20008;-74
2021/10/11 10:26:47;;;;;;;;;;;16.30;58.30;;;;;;4953846;28;19906;-74
2021/10/11 10:29:14;;;;;;;;;;;17.10;58.30;;;;;;4953777;28;19996;-74
2021/10/11 10:31:41;;;;;;;;;;;17.40;56.30;;;;;;4953824;28;19913;-74
2021/10/11 10:34:14;;;;;;;;;;;17.90;56.50;;;;;;4972180;28;19921;-74
2021/10/11 10:36:43;;;;;;;;;;;17.80;55.40;;;;;;4972925;28;20359;-74
2021/10/11 10:39:10;;;;;;;;;;;17.80;55.00;;;;;;4968657;28;19945;-74
2021/10/11 10:41:37;;;;;;;;;;;18.00;55.60;;;;;;4939474;28;19945;-74
2021/10/11 10:44:29;;;;;;;;;;;18.20;55.70;;;;;;4955962;28;19906;-74
2021/10/11 10:46:57;;;;;;;;;;;18.40;55.10;;;;;;4969461;28;19910;-74
2021/10/11 10:49:34;;;;;;;;;;;18.60;55.70;;;;;;4956013;28;19906;-74
2021/10/11 10:52:29;;;;;;;;;;;18.40;54.80;;;;;;4955712;28;19906;-74
2021/10/11 10:54:58;;;;;;;;;;;18.00;54.40;;;;;;4960006;28;19910;-74
2021/10/11 10:57:28;;;;;;;;;;;17.70;54.30;;;;;;4972304;28;19965;-74
2021/10/11 10:59:55;;;;;;;;;;;17.40;55.30;;;;;;4955733;28;19913;-74
2021/10/11 11:02:21;;;;;;;;;;;17.80;54.90;;;;;;4972445;28;19917;-74
2021/10/11 11:04:58;;;;;;;;;;;18.10;54.40;;;;;;4972913;28;19910;-74
2021/10/11 11:07:28;;;;;;;;;;;18.60;53.20;;;;;;4955216;28;19906;-74
2021/10/11 11:09:54;;;;;;;;;;;18.90;52.50;;;;;;4939736;28;20374;-74
2021/10/11 11:12:27;;;;;;;;;;;19.20;53.00;;;;;;4955163;28;19948;-74
2021/10/11 11:14:52;;;;;;;;;;;19.30;51.70;;;;;;4972736;28;19906;-74
2021/10/11 11:17:26;;;;;;;;;;;19.60;52.50;;;;;;4954854;28;19910;-74
2021/10/11 11:19:51;;;;;;;;;;;19.70;50.90;;;;;;4955534;28;19918;-74
2021/10/11 11:22:26;;;;;;;;;;;19.60;48.60;;;;;;4975557;28;19905;-73
2021/10/11 11:24:51;;;;;;;;;;;19.60;50.10;;;;;;4972578;28;19960;-74
2021/10/11 11:27:26;;;;;;;;;;;19.90;48.80;;;;;;4972381;28;19938;-74
2021/10/11 11:29:53;;;;;;;;;;;19.90;48.60;;;;;;4972511;28;20456;-74
2021/10/11 11:32:18;;;;;;;;;;;19.80;48.60;;;;;;4972270;28;20341;-74
2021/10/11 11:34:44;;;;;;;;;;;19.60;47.80;;;;;;4972777;28;19960;-74
2021/10/11 11:37:10;;;;;;;;;;;19.50;49.20;;;;;;4938698;28;20367;-74
2021/10/11 11:39:36;;;;;;;;;;;20.10;48.10;;;;;;4972550;28;19957;-74
2021/10/11 11:42:03;;;;;;;;;;;19.90;46.00;;;;;;4971954;28;20393;-74
2021/10/11 11:44:28;;;;;;;;;;;20.00;47.90;;;;;;4939011;28;19906;-74
2021/10/11 11:47:00;;;;;;;;;;;19.90;48.30;;;;;;4955037;28;19910;-74
2021/10/11 11:49:27;;;;;;;;;;;20.40;48.90;;;;;;4936841;28;20013;-74
2021/10/11 11:52:06;;;;;;;;;;;20.40;48.00;;;;;;4955675;28;19907;-74
2021/10/11 11:54:31;;;;;;;;;;;20.40;46.60;;;;;;4955087;28;19906;-74
2021/10/11 11:56:57;;;;;;;;;;;20.60;46.70;;;;;;4972785;28;20282;-74
2021/10/11 11:59:23;;;;;;;;;;;20.80;46.30;;;;;;4954667;28;19906;-74
2021/10/11 12:01:49;;;;;;;;;;;21.00;43.70;;;;;;4973553;28;19906;-74
2021/10/11 12:04:15;;;;;;;;;;;21.20;44.20;;;;;;4954507;28;19906;-74
2021/10/11 12:06:41;;;;;;;;;;;20.40;43.10;;;;;;4972047;28;19913;-74
2021/10/11 12:09:08;;;;;;;;;;;20.60;44.20;;;;;;4938173;28;19926;-74
2021/10/11 12:11:34;;;;;;;;;;;21.00;43.40;;;;;;4972347;28;19906;-74
2021/10/11 12:14:01;;;;;;;;;;;21.30;43.60;;;;;;4954751;28;19906;-74
2021/10/11 12:16:27;;;;;;;;;;;21.30;43.50;;;;;;4972064;28;20025;-74
2021/10/11 12:18:54;;;;;;;;;;;21.30;42.80;;;;;;4971792;28;19989;-74
2021/10/11 12:21:24;;;;;;;;;;;21.30;41.60;;;;;;4971926;28;19910;-74
2021/10/11 12:23:50;;;;;;;;;;;21.20;42.10;;;;;;4971883;28;20286;-74
2021/10/11 12:26:16;;;;;;;;;;;21.60;43.80;;;;;;4954256;28;19910;-74
2021/10/11 12:28:52;;;;;;;;;;;21.80;43.10;;;;;;4938233;28;19969;-74
2021/10/11 12:31:27;;;;;;;;;;;21.80;43.90;;;;;;4971758;28;20271;-74
2021/10/11 12:34:01;;;;;;;;;;;21.40;42.40;;;;;;4971344;28;19912;-74
2021/10/11 12:36:27;;;;;;;;;;;20.90;43.40;;;;;;4971961;28;20421;-74
2021/10/11 12:38:52;;;;;;;;;;;20.40;44.10;;;;;;4971257;28;20004;-74
2021/10/11 12:41:18;;;;;;;;;;;20.70;45.30;;;;;;4954536;28;20558;-74
2021/10/11 12:43:52;;;;;;;;;;;20.70;45.70;;;;;;4954678;28;19913;-74
2021/10/11 12:46:17;;;;;;;;;;;20.10;45.20;;;;;;4971844;28;20225;-74
2021/10/11 12:48:51;;;;;;;;;;;20.10;45.80;;;;;;4971766;28;19997;-74
2021/10/11 12:51:24;;;;;;;;;;;19.70;46.90;;;;;;4953600;28;19945;-74
2021/10/11 12:53:58;;;;;;;;;;;19.70;46.90;;;;;;4973214;28;20426;-74
2021/10/11 12:56:24;;;;;;;;;;;19.70;46.70;;;;;;4959106;28;19906;-74
2021/10/11 12:58:55;;;;;;;;;;;19.10;47.40;;;;;;4974549;28;19913;-74
2021/10/11 13:01:20;;;;;;;;;;;18.70;48.90;;;;;;4977061;28;20273;-74
2021/10/11 13:03:46;;;;;;;;;;;18.30;49.60;;;;;;4976736;28;19910;-74
2021/10/11 13:06:18;;;;;;;;;;;18.10;49.30;;;;;;4974798;28;19906;-74
2021/10/11 13:08:44;;;;;;;;;;;17.60;49.60;;;;;;4941549;28;19906;-74
2021/10/11 13:11:10;;;;;;;;;;;17.50;52.00;;;;;;4957826;28;19912;-74
2021/10/11 13:13:35;;;;;;;;;;;17.40;52.40;;;;;;4957181;28;19914;-74
2021/10/11 13:16:03;;;;;;;;;;;17.20;53.40;;;;;;4975125;28;19906;-73
2021/10/11 13:18:29;;;;;;;;;;;17.10;53.30;;;;;;4977942;28;19910;-74
2021/10/11 13:20:55;;;;;;;;;;;16.90;53.80;;;;;;4974881;28;19917;-74
2021/10/11 13:23:20;;;;;;;;;;;17.10;54.00;;;;;;4975767;28;20286;-74
2021/10/11 13:25:46;;;;;;;;;;;17.20;54.20;;;;;;4977034;28;19911;-74
2021/10/11 13:28:12;;;;;;;;;;;16.90;52.50;;;;;;4974493;28;20139;-74
2021/10/11 13:34:01;;;;;;;;;;;15.80;53.70;;;;;;4974273;28;19960;-73
2021/10/11 14:26:18;;;;;;;;;;;16.10;52.40;;;;;;4956365;28;20372;-73
2021/10/11 14:28:45;;;;;;;;;;;15.60;54.40;;;;;;4973140;28;19913;-73
2021/10/11 14:31:30;;;;;;;;;;;15.30;55.30;;;;;;4955724;28;19906;-74
2021/10/11 16:06:04;;;;;;;;;;;14.30;62.80;;;;;;4984108;28;20002;-75
2021/10/11 16:08:30;;;;;;;;;;;14.20;62.40;;;;;;4944066;28;20406;-74
2021/10/11 16:10:56;;;;;;;;;;;14.10;63.90;;;;;;4987432;28;19906;-75
2021/10/11 16:13:21;;;;;;;;;;;14.20;63.90;;;;;;4956023;28;19906;-74
2021/10/11 16:15:48;;;;;;;;;;;14.10;63.80;;;;;;4974678;28;19906;-74
2021/10/11 16:18:13;;;;;;;;;;;14.10;64.30;;;;;;4985966;28;20234;-75
2021/10/11 16:20:39;;;;;;;;;;;14.00;64.10;;;;;;4989108;28;19906;-75
2021/10/11 16:23:06;;;;;;;;;;;13.80;65.00;;;;;;4959799;28;20380;-74
2021/10/11 16:25:31;;;;;;;;;;;13.80;65.40;;;;;;4982134;28;20000;-75
2021/10/11 16:27:57;;;;;;;;;;;13.60;65.90;;;;;;4971097;28;20430;-74
2021/10/11 16:30:23;;;;;;;;;;;13.50;66.80;;;;;;4973749;28;19960;-74
2021/10/11 16:32:48;;;;;;;;;;;13.20;67.20;;;;;;4971300;28;19985;-74
2021/10/11 16:35:14;;;;;;;;;;;13.00;68.50;;;;;;4952018;28;19917;-74
2021/10/11 16:37:39;;;;;;;;;;;13.10;69.50;;;;;;4947102;28;19964;-75
2021/10/11 16:40:06;;;;;;;;;;;13.20;69.20;;;;;;4985253;28;19917;-74
2021/10/11 16:42:32;;;;;;;;;;;13.20;69.30;;;;;;4959017;28;19945;-74
2021/10/11 16:44:58;;;;;;;;;;;13.10;69.50;;;;;;4980766;28;19910;-76
2021/10/11 16:47:24;;;;;;;;;;;13.10;70.00;;;;;;4985148;28;19906;-75
2021/10/11 16:49:49;;;;;;;;;;;12.90;70.50;;;;;;4985864;28;19910;-75
2021/10/11 16:52:15;;;;;;;;;;;12.90;70.60;;;;;;4976696;28;19910;-75
2021/10/11 16:54:41;;;;;;;;;;;12.80;71.10;;;;;;4976311;28;19953;-75
2021/10/11 16:57:07;;;;;;;;;;;12.60;71.40;;;;;;4977031;28;19913;-75
2021/10/11 16:59:32;;;;;;;;;;;12.50;72.20;;;;;;4985872;28;19968;-74
2021/10/11 17:01:58;;;;;;;;;;;12.50;72.40;;;;;;4966501;28;19949;-75